Time;durP1;ratioP1;P1;durP2;ratioP2;P2;SDS_P1;SDS_P2;PMS_P1;PMS_P2;Temp;Humidity;BMP_temperature;BMP_pressure;BME280_temperature;BME280_humidity;BME280_pressure;Samples;Min_cycle;Max_cycle;Signal;HPM_P1;HPM_P2
2023/01/08 00:01:24;;;;;;;;;;;;;;;8.02;76.78;100538.25;4187419;28;20503;-63
2023/01/08 00:03:25;;;;;;;;;;;;;;;8.00;77.25;100534.88;4186017;28;20854;-64
2023/01/08 00:05:27;;;;;;;;;;;;;;;7.99;77.06;100538.56;4186702;28;20405;-63
2023/01/08 00:07:29;;;;;;;;;;;;;;;7.98;77.12;100522.59;4187457;28;20004;-62
2023/01/08 00:09:31;;;;;;;;;;;;;;;7.98;77.29;100525.28;4183447;28;20595;-63
2023/01/08 00:11:33;;;;;;;;;;;;;;;7.95;76.77;100515.72;4184584;28;20020;-63
2023/01/08 00:13:37;;;;;;;;;;;;;;;7.93;76.78;100518.56;4184904;28;20431;-64
2023/01/08 00:15:39;;;;;;;;;;;;;;;7.93;77.21;100505.13;4187157;28;20011;-64
2023/01/08 00:17:41;;;;;;;;;;;;;;;7.91;76.88;100509.81;4186683;28;20451;-62
2023/01/08 00:19:43;;;;;;;;;;;;;;;7.90;77.08;100501.94;4186926;28;20007;-60
2023/01/08 00:21:45;;;;;;;;;;;;;;;7.88;77.04;100503.94;4186510;28;20019;-62
2023/01/08 00:23:47;;;;;;;;;;;;;;;7.84;77.04;100498.06;4186813;28;20438;-64
2023/01/08 00:25:49;;;;;;;;;;;;;;;7.84;77.20;100505.28;4186849;28;19928;-62
2023/01/08 00:27:51;;;;;;;;;;;;;;;7.83;77.31;100499.03;4186522;28;20003;-63
2023/01/08 00:29:55;;;;;;;;;;;;;;;7.83;77.07;100499.03;4187723;28;20015;-64
2023/01/08 00:31:57;;;;;;;;;;;;;;;7.83;77.02;100500.91;4186739;28;20007;-62
2023/01/08 00:33:59;;;;;;;;;;;;;;;7.81;77.01;100494.88;4187787;28;19964;-63
2023/01/08 00:36:01;;;;;;;;;;;;;;;7.81;77.28;100498.38;4186874;28;20393;-62
2023/01/08 00:38:03;;;;;;;;;;;;;;;7.79;76.96;100489.66;4186412;28;20512;-63
2023/01/08 00:40:05;;;;;;;;;;;;;;;7.78;76.87;100484.44;4187534;28;20451;-63
2023/01/08 00:42:07;;;;;;;;;;;;;;;7.74;77.16;100490.16;4186078;28;20012;-64
2023/01/08 00:44:09;;;;;;;;;;;;;;;7.74;76.96;100483.91;4186375;28;20028;-62
2023/01/08 00:46:12;;;;;;;;;;;;;;;7.71;77.10;100474.34;4187062;28;20352;-62
2023/01/08 00:48:15;;;;;;;;;;;;;;;7.73;77.21;100482.25;4186720;28;20019;-63
2023/01/08 00:50:17;;;;;;;;;;;;;;;7.72;77.22;100476.00;4187007;28;20023;-63
2023/01/08 00:52:19;;;;;;;;;;;;;;;7.73;77.38;100466.09;4185605;28;20008;-65
2023/01/08 00:54:21;;;;;;;;;;;;;;;7.71;77.23;100468.97;4168236;28;20011;-62
2023/01/08 00:56:23;;;;;;;;;;;;;;;7.67;76.97;100472.97;4182503;28;20006;-62
2023/01/08 00:58:24;;;;;;;;;;;;;;;7.66;77.00;100465.06;4186147;28;20019;-61
2023/01/08 01:00:27;;;;;;;;;;;;;;;7.63;77.19;100460.84;4185830;28;20039;-62
2023/01/08 01:02:30;;;;;;;;;;;;;;;7.61;77.23;100459.38;4186100;28;20007;-63
2023/01/08 01:04:32;;;;;;;;;;;;;;;7.58;77.13;100458.66;4187056;28;20008;-60
2023/01/08 01:06:34;;;;;;;;;;;;;;;7.56;77.04;100462.53;4186492;28;19963;-62
2023/01/08 01:08:36;;;;;;;;;;;;;;;7.54;77.16;100456.50;4184542;28;20019;-62
2023/01/08 01:10:38;;;;;;;;;;;;;;;7.51;77.44;100449.59;4185617;28;20016;-63
2023/01/08 01:12:40;;;;;;;;;;;;;;;7.49;77.41;100459.69;4185085;28;20011;-62
2023/01/08 01:14:42;;;;;;;;;;;;;;;7.48;77.33;100446.41;4186440;28;20012;-64
2023/01/08 01:16:47;;;;;;;;;;;;;;;7.46;77.39;100440.34;4184872;28;20019;-62
2023/01/08 01:18:51;;;;;;;;;;;;;;;7.43;77.72;100438.84;4186243;28;20350;-61
2023/01/08 01:20:53;;;;;;;;;;;;;;;7.44;77.68;100447.72;4186280;28;20019;-62
2023/01/08 01:22:55;;;;;;;;;;;;;;;7.44;77.62;100459.31;4184095;28;20041;-63
2023/01/08 01:24:57;;;;;;;;;;;;;;;7.44;77.63;100453.94;4184917;28;20023;-63
2023/01/08 01:26:59;;;;;;;;;;;;;;;7.42;77.46;100453.25;4185834;28;19921;-64
2023/01/08 01:29:01;;;;;;;;;;;;;;;7.42;77.71;100447.88;4186789;28;20079;-63
2023/01/08 01:31:03;;;;;;;;;;;;;;;7.40;77.62;100456.13;4186851;28;20059;-64
2023/01/08 01:33:05;;;;;;;;;;;;;;;7.40;77.63;100452.59;4185714;28;20611;-63
2023/01/08 01:35:08;;;;;;;;;;;;;;;7.37;77.67;100445.69;4186946;28;20002;-63
2023/01/08 01:37:11;;;;;;;;;;;;;;;7.35;77.61;100442.34;4182844;28;20014;-64
2023/01/08 01:39:13;;;;;;;;;;;;;;;7.36;77.46;100446.69;4185901;28;19963;-61
2023/01/08 01:41:18;;;;;;;;;;;;;;;7.36;77.59;100443.16;4185844;28;20007;-62
2023/01/08 01:43:33;;;;;;;;;;;;;;;7.33;77.23;100447.00;4185731;28;20011;-63
2023/01/08 01:45:35;;;;;;;;;;;;;;;7.32;77.17;100449.84;4201511;28;20022;-63
2023/01/08 01:47:38;;;;;;;;;;;;;;;7.30;77.48;100451.88;4185532;28;20402;-63
2023/01/08 01:49:40;;;;;;;;;;;;;;;7.27;77.50;100446.81;4185214;28;20011;-63
2023/01/08 01:51:44;;;;;;;;;;;;;;;7.26;77.61;100443.31;4185897;28;20031;-63
2023/01/08 01:53:46;;;;;;;;;;;;;;;7.24;77.55;100444.47;4186140;28;20043;-62
2023/01/08 01:55:48;;;;;;;;;;;;;;;7.24;77.75;100444.47;4186309;28;19970;-62
2023/01/08 01:57:52;;;;;;;;;;;;;;;7.22;77.37;100432.06;4185483;28;20349;-63
2023/01/08 01:59:54;;;;;;;;;;;;;;;7.21;77.53;100416.94;4185819;28;20454;-65
2023/01/08 02:01:56;;;;;;;;;;;;;;;7.21;77.52;100413.41;4185081;28;20015;-64
2023/01/08 02:03:58;;;;;;;;;;;;;;;7.20;77.54;100417.09;4185899;28;20019;-65
2023/01/08 02:06:01;;;;;;;;;;;;;;;7.17;77.70;100422.78;4186257;28;20031;-62
2023/01/08 02:08:07;;;;;;;;;;;;;;;7.10;77.49;100417.25;4184622;28;19929;-65
2023/01/08 02:10:10;;;;;;;;;;;;;;;7.15;77.94;100419.44;4185910;28;20028;-64
2023/01/08 02:12:17;;;;;;;;;;;;;;;7.15;77.64;100414.06;4199647;28;20015;-60
2023/01/08 02:14:21;;;;;;;;;;;;;;;7.13;77.82;100421.44;4184996;28;20027;-59
2023/01/08 02:16:24;;;;;;;;;;;;;;;7.12;77.90;100417.06;4186204;28;20015;-59
2023/01/08 02:18:28;;;;;;;;;;;;;;;7.11;77.90;100415.38;4184851;28;20003;-63
2023/01/08 02:20:30;;;;;;;;;;;;;;;7.09;77.50;100412.03;4186004;28;20019;-62
2023/01/08 02:22:35;;;;;;;;;;;;;;;7.07;77.89;100398.75;4184752;28;19968;-64
2023/01/08 02:24:51;;;;;;;;;;;;;;;7.07;77.69;100397.91;4185744;28;20359;-64
2023/01/08 02:26:54;;;;;;;;;;;;;;;7.06;77.74;100393.56;4185988;28;20015;-63
2023/01/08 02:28:57;;;;;;;;;;;;;;;7.03;77.81;100379.44;4185621;28;19920;-63
2023/01/08 02:30:59;;;;;;;;;;;;;;;7.00;77.64;100382.44;4186423;28;20011;-63
2023/01/08 02:33:01;;;;;;;;;;;;;;;6.98;77.54;100371.03;4184963;28;19924;-64
2023/01/08 02:35:03;;;;;;;;;;;;;;;6.98;77.74;100368.34;4185369;28;20019;-61
2023/01/08 02:37:05;;;;;;;;;;;;;;;6.96;77.75;100365.00;4200148;28;20623;-62
2023/01/08 02:39:11;;;;;;;;;;;;;;;6.95;77.68;100371.34;4185225;28;20015;-63
2023/01/08 02:41:12;;;;;;;;;;;;;;;6.92;77.86;100369.00;4200232;28;20019;-61
2023/01/08 02:43:17;;;;;;;;;;;;;;;6.91;77.82;100369.16;4184943;28;20003;-63
2023/01/08 02:45:21;;;;;;;;;;;;;;;6.88;77.84;100367.66;4185487;28;20035;-61
2023/01/08 02:47:29;;;;;;;;;;;;;;;6.88;77.89;100373.03;4184892;28;20015;-61
2023/01/08 02:49:32;;;;;;;;;;;;;;;6.87;77.71;100365.13;4185939;28;19959;-63
2023/01/08 02:51:34;;;;;;;;;;;;;;;6.84;77.63;100360.91;4186025;28;20100;-64
2023/01/08 02:53:37;;;;;;;;;;;;;;;6.81;77.87;100348.66;4185211;28;20352;-64
2023/01/08 02:55:39;;;;;;;;;;;;;;;6.79;77.92;100349.84;4186854;28;20384;-63
2023/01/08 02:57:41;;;;;;;;;;;;;;;6.77;77.92;100350.00;4184841;28;20015;-62
2023/01/08 02:59:44;;;;;;;;;;;;;;;6.78;78.26;100351.66;4185246;28;20611;-63
2023/01/08 03:01:46;;;;;;;;;;;;;;;6.78;78.08;100354.34;4184324;28;20028;-64
2023/01/08 03:03:49;;;;;;;;;;;;;;;6.78;78.33;100348.97;4185292;28;20016;-63
2023/01/08 03:05:54;;;;;;;;;;;;;;;6.77;78.26;100341.94;4185225;28;20027;-62
2023/01/08 03:07:56;;;;;;;;;;;;;;;6.75;77.80;100343.94;4184389;28;20418;-64
2023/01/08 03:09:58;;;;;;;;;;;;;;;6.73;78.11;100337.06;4186011;28;19936;-61
2023/01/08 03:12:02;;;;;;;;;;;;;;;6.70;77.99;100338.22;4182616;28;20012;-64
2023/01/08 03:14:04;;;;;;;;;;;;;;;6.69;78.18;100339.22;4183756;28;20043;-64
2023/01/08 03:16:08;;;;;;;;;;;;;;;6.68;77.88;100333.00;4185611;28;20011;-62
2023/01/08 03:18:11;;;;;;;;;;;;;;;6.72;77.88;100335.38;4184351;28;20012;-61
2023/01/08 03:20:14;;;;;;;;;;;;;;;6.68;77.82;100334.84;4182714;28;20055;-63
2023/01/08 03:22:16;;;;;;;;;;;;;;;6.66;77.93;100344.91;4184903;28;20466;-63
2023/01/08 03:24:20;;;;;;;;;;;;;;;6.65;77.89;100341.38;4184890;28;20345;-63
2023/01/08 03:26:23;;;;;;;;;;;;;;;6.65;78.17;100346.75;4184782;28;20047;-62
2023/01/08 03:28:29;;;;;;;;;;;;;;;6.66;78.15;100331.47;4183860;28;20351;-63
2023/01/08 03:30:31;;;;;;;;;;;;;;;6.66;78.44;100329.66;4186028;28;19920;-61
2023/01/08 03:32:34;;;;;;;;;;;;;;;6.65;78.48;100327.97;4184008;28;20382;-63
2023/01/08 03:34:36;;;;;;;;;;;;;;;6.65;78.58;100314.53;4199819;28;20016;-60
2023/01/08 03:36:38;;;;;;;;;;;;;;;6.65;78.33;100311.84;4200152;28;20473;-61
2023/01/08 03:38:40;;;;;;;;;;;;;;;6.65;78.58;100313.72;4185218;28;20004;-63
2023/01/08 03:40:43;;;;;;;;;;;;;;;6.64;78.57;100306.66;4184984;28;20023;-63
2023/01/08 03:42:45;;;;;;;;;;;;;;;6.65;78.54;100313.72;4182336;28;20437;-63
2023/01/08 03:44:47;;;;;;;;;;;;;;;6.65;78.43;100313.72;4185434;28;20003;-64
2023/01/08 03:46:51;;;;;;;;;;;;;;;6.65;78.82;100303.81;4184425;28;20011;-61
2023/01/08 03:48:54;;;;;;;;;;;;;;;6.65;78.64;100305.66;4185591;28;20019;-61
2023/01/08 03:50:56;;;;;;;;;;;;;;;6.64;78.90;100307.47;4187407;28;20450;-62
2023/01/08 03:52:58;;;;;;;;;;;;;;;6.62;78.46;100303.31;4187481;28;20004;-63
2023/01/08 03:55:00;;;;;;;;;;;;;;;6.60;78.94;100314.19;4187744;28;20023;-64
2023/01/08 03:57:02;;;;;;;;;;;;;;;6.60;78.59;100319.56;4187634;28;20020;-63
2023/01/08 03:59:04;;;;;;;;;;;;;;;6.60;78.87;100324.06;4187259;28;20016;-64
2023/01/08 04:01:06;;;;;;;;;;;;;;;6.60;78.67;100314.19;4187775;28;20015;-64
2023/01/08 04:03:08;;;;;;;;;;;;;;;6.58;78.89;100324.25;4202252;28;20022;-64
2023/01/08 04:05:11;;;;;;;;;;;;;;;6.58;78.77;100326.09;4187633;28;20024;-65
2023/01/08 04:07:13;;;;;;;;;;;;;;;6.59;78.62;100315.19;4186653;28;20012;-65
2023/01/08 04:09:15;;;;;;;;;;;;;;;6.58;78.94;100318.91;4187803;28;20019;-64
2023/01/08 04:11:17;;;;;;;;;;;;;;;6.57;78.77;100316.38;4187625;28;19920;-63
2023/01/08 04:13:19;;;;;;;;;;;;;;;6.57;78.56;100314.53;4186215;28;20012;-63
2023/01/08 04:15:21;;;;;;;;;;;;;;;6.58;78.62;100315.34;4186309;28;20368;-61
2023/01/08 04:17:23;;;;;;;;;;;;;;;6.59;78.35;100311.69;4187325;28;20003;-63
2023/01/08 04:19:25;;;;;;;;;;;;;;;6.58;78.46;100307.31;4187347;28;20020;-63
2023/01/08 04:21:29;;;;;;;;;;;;;;;6.58;78.59;100301.94;4187754;28;20003;-63
2023/01/08 04:23:30;;;;;;;;;;;;;;;6.57;78.41;100308.31;4185234;28;20015;-63
2023/01/08 04:25:32;;;;;;;;;;;;;;;6.55;78.54;100316.53;4186981;28;20032;-62
2023/01/08 04:27:34;;;;;;;;;;;;;;;6.53;78.26;100325.72;4186733;28;20003;-61
2023/01/08 04:29:36;;;;;;;;;;;;;;;6.52;78.31;100319.53;4187640;28;20027;-62
2023/01/08 04:31:38;;;;;;;;;;;;;;;6.52;78.77;100307.94;4185999;28;19924;-62
2023/01/08 04:33:40;;;;;;;;;;;;;;;6.52;78.59;100311.50;4187373;28;20019;-62
2023/01/08 04:35:42;;;;;;;;;;;;;;;6.53;78.71;100298.91;4186217;28;20031;-62
2023/01/08 04:37:50;;;;;;;;;;;;;;;6.53;78.27;100291.69;4186974;28;20020;-62
2023/01/08 04:39:52;;;;;;;;;;;;;;;6.52;78.35;100297.22;4161712;28;19956;-63
2023/01/08 04:41:54;;;;;;;;;;;;;;;6.52;78.16;100286.47;4186191;28;20016;-63
2023/01/08 04:43:56;;;;;;;;;;;;;;;6.51;78.20;100282.97;4185821;28;20453;-63
2023/01/08 04:45:58;;;;;;;;;;;;;;;6.49;78.18;100275.09;4186695;28;20011;-63
2023/01/08 04:48:03;;;;;;;;;;;;;;;6.51;78.31;100282.13;4186487;28;20019;-63
2023/01/08 04:50:05;;;;;;;;;;;;;;;6.49;78.28;100271.56;4187718;28;20038;-63
2023/01/08 04:52:07;;;;;;;;;;;;;;;6.50;78.37;100273.22;4186566;28;20375;-63
2023/01/08 04:54:10;;;;;;;;;;;;;;;6.51;77.89;100266.88;4186706;28;20023;-63
2023/01/08 04:56:12;;;;;;;;;;;;;;;6.49;77.71;100264.34;4186917;28;20015;-62
2023/01/08 04:58:14;;;;;;;;;;;;;;;6.49;78.14;100268.88;4186740;28;20007;-63
2023/01/08 05:00:17;;;;;;;;;;;;;;;6.48;78.11;100276.06;4187135;28;20015;-63
2023/01/08 05:02:19;;;;;;;;;;;;;;;6.48;77.84;100281.44;4184883;28;20425;-63
2023/01/08 05:04:21;;;;;;;;;;;;;;;6.47;77.96;100277.09;4186762;28;20450;-62
2023/01/08 05:06:23;;;;;;;;;;;;;;;6.47;78.06;100273.53;4187161;28;20036;-62
2023/01/08 05:08:25;;;;;;;;;;;;;;;6.46;77.81;100263.84;4185809;28;20007;-64
2023/01/08 05:10:28;;;;;;;;;;;;;;;6.46;78.04;100266.53;4186032;28;20020;-64
2023/01/08 05:12:30;;;;;;;;;;;;;;;6.49;78.21;100266.19;4186309;28;20406;-65
2023/01/08 05:14:32;;;;;;;;;;;;;;;6.49;77.97;100266.19;4186693;28;20003;-64
2023/01/08 05:16:34;;;;;;;;;;;;;;;6.47;77.96;100262.81;4185884;28;20007;-64
2023/01/08 05:18:36;;;;;;;;;;;;;;;6.48;78.18;100267.19;4183424;28;20015;-64
2023/01/08 05:20:38;;;;;;;;;;;;;;;6.49;78.06;100264.34;4187624;28;20449;-64
2023/01/08 05:22:40;;;;;;;;;;;;;;;6.49;77.91;100261.66;4188194;28;19970;-62
2023/01/08 05:24:41;;;;;;;;;;;;;;;6.49;78.09;100255.47;4189494;28;19968;-64
2023/01/08 05:26:45;;;;;;;;;;;;;;;6.48;78.10;100265.34;4186051;28;20428;-64
2023/01/08 05:28:47;;;;;;;;;;;;;;;6.48;77.85;100253.78;4170880;28;20024;-62
2023/01/08 05:30:49;;;;;;;;;;;;;;;6.50;77.83;100257.13;4171584;28;20007;-63
2023/01/08 05:32:51;;;;;;;;;;;;;;;6.52;78.23;100262.34;4160235;28;19952;-62
2023/01/08 05:34:53;;;;;;;;;;;;;;;6.53;77.95;100264.84;4155457;28;20008;-63
2023/01/08 05:36:55;;;;;;;;;;;;;;;6.53;77.97;100262.16;4156753;28;20595;-63
2023/01/08 05:38:57;;;;;;;;;;;;;;;6.54;77.94;100263.03;4170378;28;20024;-62
2023/01/08 05:40:58;;;;;;;;;;;;;;;6.53;77.87;100256.81;4170229;28;20024;-63
2023/01/08 05:43:04;;;;;;;;;;;;;;;6.54;77.92;100260.34;4167149;28;20023;-64
2023/01/08 05:45:06;;;;;;;;;;;;;;;6.53;77.87;100248.75;4169907;28;20040;-62
2023/01/08 05:47:08;;;;;;;;;;;;;;;6.54;77.93;100246.94;4174241;28;20012;-64
2023/01/08 05:49:10;;;;;;;;;;;;;;;6.53;77.95;100239.88;4186247;28;20015;-63
2023/01/08 05:51:12;;;;;;;;;;;;;;;6.54;77.70;100238.88;4186010;28;20422;-63
2023/01/08 05:53:14;;;;;;;;;;;;;;;6.51;77.60;100248.09;4185776;28;19931;-61
2023/01/08 05:55:16;;;;;;;;;;;;;;;6.49;77.89;100242.06;4185870;28;20020;-62
2023/01/08 05:57:18;;;;;;;;;;;;;;;6.48;77.94;100246.56;4185423;28;20020;-65
2023/01/08 05:59:21;;;;;;;;;;;;;;;6.47;77.71;100236.84;4186093;28;20015;-61
2023/01/08 06:01:23;;;;;;;;;;;;;;;6.48;77.56;100230.47;4186215;28;20036;-64
2023/01/08 06:03:25;;;;;;;;;;;;;;;6.48;77.71;100237.69;4185118;28;20016;-63
2023/01/08 06:05:27;;;;;;;;;;;;;;;6.47;77.54;100239.53;4184993;28;20024;-61
2023/01/08 06:07:29;;;;;;;;;;;;;;;6.48;77.90;100235.00;4185310;28;20015;-63
2023/01/08 06:09:31;;;;;;;;;;;;;;;6.48;78.09;100232.31;4185708;28;20426;-62
2023/01/08 06:11:33;;;;;;;;;;;;;;;6.46;77.89;100223.59;4185998;28;20022;-64
2023/01/08 06:13:36;;;;;;;;;;;;;;;6.49;77.95;100232.16;4184643;28;20379;-60
2023/01/08 06:15:39;;;;;;;;;;;;;;;6.50;77.94;100224.94;4185477;28;20034;-64
2023/01/08 06:17:41;;;;;;;;;;;;;;;6.51;77.80;100223.13;4185033;28;20011;-63
2023/01/08 06:19:45;;;;;;;;;;;;;;;6.50;77.69;100230.31;4186060;28;20028;-64
2023/01/08 06:21:47;;;;;;;;;;;;;;;6.51;77.90;100225.78;4181697;28;20495;-62
2023/01/08 06:23:49;;;;;;;;;;;;;;;6.49;77.88;100226.78;4198508;28;20024;-61
2023/01/08 06:25:51;;;;;;;;;;;;;;;6.50;77.78;100222.25;4185080;28;20019;-62
2023/01/08 06:27:53;;;;;;;;;;;;;;;6.50;78.09;100219.56;4186132;28;20024;-62
2023/01/08 06:29:55;;;;;;;;;;;;;;;6.49;77.93;100221.44;4183820;28;20007;-62
2023/01/08 06:31:59;;;;;;;;;;;;;;;6.49;78.00;100217.91;4184996;28;20347;-62
2023/01/08 06:34:01;;;;;;;;;;;;;;;6.49;77.77;100225.97;4185421;28;20469;-61
2023/01/08 06:36:03;;;;;;;;;;;;;;;6.47;77.90;100210.03;4186141;28;20453;-64
2023/01/08 06:38:05;;;;;;;;;;;;;;;6.49;77.76;100213.38;4199839;28;20010;-65
2023/01/08 06:40:08;;;;;;;;;;;;;;;6.48;77.88;100218.91;4185332;28;20010;-61
2023/01/08 06:42:10;;;;;;;;;;;;;;;6.51;77.75;100215.06;4184189;28;20016;-61
2023/01/08 06:44:12;;;;;;;;;;;;;;;6.51;77.97;100213.22;4185141;28;20015;-64
2023/01/08 06:46:14;;;;;;;;;;;;;;;6.53;78.01;100208.50;4184127;28;20453;-63
2023/01/08 06:48:17;;;;;;;;;;;;;;;6.54;77.44;100212.06;4185510;28;20027;-63
2023/01/08 06:50:19;;;;;;;;;;;;;;;6.56;77.66;100210.88;4184885;28;20015;-64
2023/01/08 06:52:21;;;;;;;;;;;;;;;6.58;77.20;100206.19;4184467;28;20018;-64
2023/01/08 06:54:23;;;;;;;;;;;;;;;6.62;77.59;100217.44;4184422;28;19959;-65
2023/01/08 06:56:25;;;;;;;;;;;;;;;6.62;77.30;100218.25;4199130;28;20015;-63
2023/01/08 06:58:27;;;;;;;;;;;;;;;6.65;77.49;100217.09;4181768;28;20024;-61
2023/01/08 07:00:29;;;;;;;;;;;;;;;6.69;77.16;100218.44;4184286;28;20063;-64
2023/01/08 07:02:31;;;;;;;;;;;;;;;6.73;77.18;100224.34;4184642;28;20450;-64
2023/01/08 07:04:34;;;;;;;;;;;;;;;6.75;77.01;100216.94;4183910;28;20023;-67
2023/01/08 07:06:36;;;;;;;;;;;;;;;6.76;77.15;100227.53;4183395;28;20011;-66
2023/01/08 07:08:38;;;;;;;;;;;;;;;6.77;76.92;100217.63;4184546;28;20718;-65
2023/01/08 07:10:40;;;;;;;;;;;;;;;6.78;76.67;100219.31;4185324;28;20014;-64
2023/01/08 07:12:42;;;;;;;;;;;;;;;6.78;76.83;100224.66;4183083;28;20418;-65
2023/01/08 07:14:44;;;;;;;;;;;;;;;6.79;76.68;100221.00;4183725;28;20360;-65
2023/01/08 07:16:46;;;;;;;;;;;;;;;6.76;76.42;100213.28;4184288;28;20015;-65
2023/01/08 07:18:48;;;;;;;;;;;;;;;6.80;76.37;100220.84;4184087;28;20016;-65
2023/01/08 07:20:52;;;;;;;;;;;;;;;6.81;76.46;100222.50;4185218;28;20019;-66
2023/01/08 07:22:53;;;;;;;;;;;;;;;6.82;76.37;100224.19;4182590;28;19991;-65
2023/01/08 07:24:55;;;;;;;;;;;;;;;6.84;76.48;100224.00;4187176;28;20370;-66
2023/01/08 07:26:57;;;;;;;;;;;;;;;6.86;76.66;100222.00;4183001;28;19996;-65
2023/01/08 07:28:59;;;;;;;;;;;;;;;6.88;76.40;100224.50;4188036;28;20367;-66
2023/01/08 07:31:05;;;;;;;;;;;;;;;6.90;76.29;100227.91;4187286;28;20014;-65
2023/01/08 07:33:07;;;;;;;;;;;;;;;6.91;76.06;100227.72;4187842;28;20011;-66
2023/01/08 07:35:09;;;;;;;;;;;;;;;6.93;76.06;100232.91;4184907;28;20015;-68
2023/01/08 07:37:12;;;;;;;;;;;;;;;6.95;76.20;100223.69;4187794;28;20031;-65
2023/01/08 07:39:14;;;;;;;;;;;;;;;6.90;76.45;100222.53;4188825;28;20015;-66
2023/01/08 07:41:16;;;;;;;;;;;;;;;6.97;76.32;100229.72;4185500;28;20429;-65
2023/01/08 07:43:18;;;;;;;;;;;;;;;6.98;76.04;100239.47;4186491;28;20412;-66
2023/01/08 07:45:20;;;;;;;;;;;;;;;7.01;76.45;100236.44;4188344;28;20387;-66
2023/01/08 07:47:22;;;;;;;;;;;;;;;7.02;76.59;100239.97;4186609;28;20462;-66
2023/01/08 07:49:24;;;;;;;;;;;;;;;7.04;76.68;100238.81;4188081;28;20082;-66
2023/01/08 07:51:26;;;;;;;;;;;;;;;7.03;76.80;100237.13;4187627;28;20562;-65
2023/01/08 07:53:29;;;;;;;;;;;;;;;7.03;76.92;100229.06;4172160;28;19999;-65
2023/01/08 07:55:31;;;;;;;;;;;;;;;7.05;77.25;100231.56;4172661;28;20016;-67
2023/01/08 07:57:33;;;;;;;;;;;;;;;7.07;77.08;100232.28;4178811;28;20032;-67
2023/01/08 07:59:35;;;;;;;;;;;;;;;7.06;77.39;100227.91;4188282;28;20023;-67
2023/01/08 08:01:37;;;;;;;;;;;;;;;7.07;77.39;100221.53;4186270;28;20016;-67
2023/01/08 08:03:39;;;;;;;;;;;;;;;7.09;77.97;100221.38;4187000;28;20019;-66
2023/01/08 08:05:41;;;;;;;;;;;;;;;7.09;77.96;100221.38;4186610;28;20019;-66
2023/01/08 08:07:43;;;;;;;;;;;;;;;7.09;78.28;100216.00;4187492;28;20028;-67
2023/01/08 08:09:46;;;;;;;;;;;;;;;7.09;78.57;100219.50;4186679;28;20015;-66
2023/01/08 08:11:48;;;;;;;;;;;;;;;7.10;78.65;100218.50;4187346;28;20018;-65
2023/01/08 08:13:50;;;;;;;;;;;;;;;7.11;79.02;100219.34;4187213;28;20019;-66
2023/01/08 08:15:52;;;;;;;;;;;;;;;7.12;79.11;100212.97;4202049;28;19924;-66
2023/01/08 08:17:54;;;;;;;;;;;;;;;7.13;79.19;100217.31;4186528;28;20016;-67
2023/01/08 08:19:56;;;;;;;;;;;;;;;7.13;79.77;100226.25;4187230;28;20367;-67
2023/01/08 08:21:58;;;;;;;;;;;;;;;7.11;80.10;100228.22;4185616;28;20016;-66
2023/01/08 08:24:00;;;;;;;;;;;;;;;7.12;80.17;100226.41;4186131;28;20011;-67
2023/01/08 08:26:04;;;;;;;;;;;;;;;7.07;80.08;100212.63;4186976;28;20023;-66
2023/01/08 08:28:06;;;;;;;;;;;;;;;7.12;80.50;100203.06;4185733;28;20011;-66
2023/01/08 08:30:09;;;;;;;;;;;;;;;7.15;80.87;100209.97;4186741;28;20015;-66
2023/01/08 08:32:11;;;;;;;;;;;;;;;7.15;80.68;100202.72;4185703;28;20051;-66
2023/01/08 08:34:13;;;;;;;;;;;;;;;7.16;81.00;100209.78;4186825;28;20442;-65
2023/01/08 08:36:15;;;;;;;;;;;;;;;7.18;81.23;100202.41;4187329;28;19924;-66
2023/01/08 08:38:17;;;;;;;;;;;;;;;7.18;81.02;100201.56;4183956;28;20007;-65
2023/01/08 08:40:18;;;;;;;;;;;;;;;7.17;81.31;100198.00;4187187;28;20358;-66
2023/01/08 08:42:22;;;;;;;;;;;;;;;7.19;81.28;100197.84;4186126;28;20078;-67
2023/01/08 08:44:24;;;;;;;;;;;;;;;7.20;81.43;100186.94;4183364;28;20025;-61
2023/01/08 08:46:26;;;;;;;;;;;;;;;7.24;81.04;100189.28;4182921;28;20047;-61
2023/01/08 08:48:28;;;;;;;;;;;;;;;7.27;81.09;100186.25;4181717;28;20031;-66
2023/01/08 08:50:30;;;;;;;;;;;;;;;7.28;80.96;100180.72;4185037;28;20023;-63
2023/01/08 08:52:32;;;;;;;;;;;;;;;7.31;80.81;100185.75;4180236;28;20417;-66
2023/01/08 08:54:34;;;;;;;;;;;;;;;7.34;80.94;100187.28;4184153;28;20039;-67
2023/01/08 08:56:36;;;;;;;;;;;;;;;7.36;80.75;100198.69;4181068;28;19931;-67
2023/01/08 08:58:40;;;;;;;;;;;;;;;7.38;80.59;100188.59;4185662;28;20007;-66
2023/01/08 09:00:43;;;;;;;;;;;;;;;7.37;80.26;100185.09;4185570;28;20011;-67
2023/01/08 09:02:45;;;;;;;;;;;;;;;7.43;80.17;100180.03;4184378;28;20016;-68
2023/01/08 09:04:46;;;;;;;;;;;;;;;7.44;80.09;100181.72;4185010;28;20446;-63
2023/01/08 09:06:48;;;;;;;;;;;;;;;7.46;80.13;100174.31;4183620;28;20007;-65
2023/01/08 09:08:50;;;;;;;;;;;;;;;7.47;80.30;100170.63;4182881;28;20016;-67
2023/01/08 09:10:52;;;;;;;;;;;;;;;7.49;80.08;100169.47;4184781;28;20015;-67
2023/01/08 09:12:54;;;;;;;;;;;;;;;7.50;80.30;100154.16;4185038;28;19996;-67
2023/01/08 09:14:58;;;;;;;;;;;;;;;7.51;79.95;100137.03;4184496;28;20461;-72
2023/01/08 09:17:00;;;;;;;;;;;;;;;7.52;79.94;100104.63;4184524;28;19933;-67
2023/01/08 09:19:02;;;;;;;;;;;;;;;7.52;79.87;100134.19;4185257;28;20043;-67
2023/01/08 09:21:04;;;;;;;;;;;;;;;7.57;80.33;100173.97;4178223;28;20006;-67
2023/01/08 09:23:06;;;;;;;;;;;;;;;7.58;80.34;100175.63;4185085;28;20026;-63
2023/01/08 09:25:08;;;;;;;;;;;;;;;7.60;80.11;100168.22;4179934;28;20031;-65
2023/01/08 09:27:10;;;;;;;;;;;;;;;7.62;80.45;100181.50;4184008;28;20450;-67
2023/01/08 09:29:12;;;;;;;;;;;;;;;7.62;80.50;100184.19;4180999;28;20015;-65
2023/01/08 09:31:16;;;;;;;;;;;;;;;7.63;80.34;100180.50;4181498;28;20102;-65
2023/01/08 09:33:18;;;;;;;;;;;;;;;7.64;80.19;100184.88;4181691;28;20019;-64
2023/01/08 09:35:20;;;;;;;;;;;;;;;7.66;80.11;100188.22;4182915;28;20569;-63
2023/01/08 09:37:22;;;;;;;;;;;;;;;7.66;80.15;100189.06;4181766;28;20015;-64
2023/01/08 09:39:24;;;;;;;;;;;;;;;7.69;80.17;100195.94;4177690;28;20032;-66
2023/01/08 09:41:26;;;;;;;;;;;;;;;7.70;79.81;100184.19;4180954;28;20611;-65
2023/01/08 09:43:29;;;;;;;;;;;;;;;7.71;79.74;100185.84;4179136;28;20548;-66
2023/01/08 09:45:31;;;;;;;;;;;;;;;7.72;79.95;100185.69;4182827;28;20019;-65
2023/01/08 09:47:36;;;;;;;;;;;;;;;7.74;79.80;100193.56;4181845;28;20024;-65
2023/01/08 09:49:39;;;;;;;;;;;;;;;7.74;79.81;100202.50;4184071;28;20745;-65
2023/01/08 09:51:41;;;;;;;;;;;;;;;7.76;79.59;100205.00;4184592;28;20111;-65
2023/01/08 09:53:44;;;;;;;;;;;;;;;7.78;79.69;100202.97;4182881;28;20043;-67
2023/01/08 09:55:46;;;;;;;;;;;;;;;7.80;79.22;100203.63;4183889;28;20363;-67
2023/01/08 09:57:48;;;;;;;;;;;;;;;7.81;79.09;100205.34;4181160;28;19970;-67
2023/01/08 09:59:50;;;;;;;;;;;;;;;7.82;79.33;100211.53;4184022;28;20016;-68
2023/01/08 10:01:52;;;;;;;;;;;;;;;7.83;79.08;100199.78;4182955;28;20446;-69
2023/01/08 10:03:57;;;;;;;;;;;;;;;7.83;79.14;100194.41;4183553;28;20465;-69
2023/01/08 10:05:59;;;;;;;;;;;;;;;7.84;79.09;100177.28;4182712;28;20019;-67
2023/01/08 10:08:01;;;;;;;;;;;;;;;7.86;79.02;100173.38;4167317;28;20011;-65
2023/01/08 10:10:04;;;;;;;;;;;;;;;7.87;78.97;100158.94;4182993;28;20008;-66
2023/01/08 10:12:06;;;;;;;;;;;;;;;7.89;79.11;100150.69;4181465;28;20393;-67
2023/01/08 10:14:08;;;;;;;;;;;;;;;7.89;79.34;100137.25;4182743;28;20027;-68
2023/01/08 10:16:11;;;;;;;;;;;;;;;7.90;79.59;100141.63;4181374;28;20027;-66
2023/01/08 10:18:13;;;;;;;;;;;;;;;7.91;79.56;100154.88;4183462;28;19928;-67
2023/01/08 10:20:18;;;;;;;;;;;;;;;7.93;79.52;100163.63;4182592;28;20023;-67
2023/01/08 10:22:20;;;;;;;;;;;;;;;7.95;79.92;100152.69;4183031;28;19999;-67
2023/01/08 10:24:32;;;;;;;;;;;;;;;7.93;80.25;100157.38;4183458;28;20011;-67
2023/01/08 10:26:35;;;;;;;;;;;;;;;7.94;80.22;100154.50;4181095;28;20461;-67
2023/01/08 10:28:37;;;;;;;;;;;;;;;7.94;80.61;100159.91;4183286;28;20011;-68
2023/01/08 10:30:39;;;;;;;;;;;;;;;7.94;80.75;100173.34;4184308;28;20008;-66
2023/01/08 10:32:45;;;;;;;;;;;;;;;7.92;81.58;100161.94;4182708;28;20074;-63
2023/01/08 10:34:48;;;;;;;;;;;;;;;7.91;81.87;100173.69;4181405;28;20023;-65
2023/01/08 10:36:51;;;;;;;;;;;;;;;7.88;82.08;100182.13;4183139;28;20508;-67
2023/01/08 10:38:55;;;;;;;;;;;;;;;7.87;82.38;100167.00;4184769;28;19925;-66